Adamovichi, Belarus

3:30 AM +03 on December 05, 2016 (GMT +0300)
Н8939 | | Change Station

Elev 826 ft 53.99 °N, 27.23 °E | Updated 3 minutes ago

Scattered Clouds
Scattered Clouds
18.3 °F
Feels Like 13 °F
N
3.7
Wind Variable Wind from ENE
Gusts 6.8 mph

Today
High -- | Low -- °F
--% Chance of Precip.
Yesterday
High -- | Low -- °F
Precip. -- in
Pressure 30.24 in
Visibility 6.2 miles
Clouds Scattered Clouds 4300 ft
Windchill 13 °F
Dew Point 17 °F
Humidity 96%
Rainfall Not available.
Snow Depth Not available.
9:15 AM 4:50 PM
Waxing Crescent, 26% visible
METAR UMMS 050000Z 22003MPS 9999 SCT043 M11/M12 Q1024 R31/810249 NOSIG
Pressure 30.24 in
Visibility 6.2 miles
Clouds Scattered Clouds 4300 ft
Windchill 13 °F
Dew Point 17 °F
Humidity 96%
Rainfall Not available.
Snow Depth Not available.
9:15 AM 4:50 PM
Waxing Crescent, 26% visible
METAR UMMS 050000Z 22003MPS 9999 SCT043 M11/M12 Q1024 R31/810249 NOSIG

10-Day Weather Forecast

×

Almanac

Astronomy

Dec. 05, 2016 Rise Set
Actual Time
Civil Twilight
Nautical Twilight
Astronomical Twilight
Moon
Length of Visible Light
Length of Day
Tomorrow will be .
, % of the Moon is Illuminated

Today's Extremes

Country Highs Country Lows

Community

WunderPhotos

Upload Photos

1,955,724 photos uploaded!

WunderBlog® & News

Nearby

Air Quality

  Air Quality AQ Index Pollutant
Not available.

Snow Depth

Station Depth Elevation

Earthquake Activity

City Distance Mag. Time & Date
Minimum magnitude displayed is 2.5.

Coastal Water Temperatures

Place Temperature

Stations

Nearby Weather Stations

Station Location Temp. Windchill Dew Point Humidity Wind Precip. Elev Updated Type